sensor_id;sensor_type;location;lat;lon;timestamp;P1;durP1;ratioP1;P2;durP2;ratioP2
6983;SDS011;3532;51.118;7.210;2023-09-19T00:01:28;4.47;;;3.03;;
6983;SDS011;3532;51.118;7.210;2023-09-19T00:03:55;6.77;;;3.10;;
6983;SDS011;3532;51.118;7.210;2023-09-19T00:06:20;5.37;;;2.87;;
6983;SDS011;3532;51.118;7.210;2023-09-19T00:08:46;3.97;;;2.77;;
6983;SDS011;3532;51.118;7.210;2023-09-19T00:11:12;7.10;;;3.53;;
6983;SDS011;3532;51.118;7.210;2023-09-19T00:13:39;4.73;;;3.10;;
6983;SDS011;3532;51.118;7.210;2023-09-19T00:16:10;5.70;;;2.83;;
6983;SDS011;3532;51.118;7.210;2023-09-19T00:18:36;6.93;;;3.00;;
6983;SDS011;3532;51.118;7.210;2023-09-19T00:21:03;4.93;;;3.27;;
6983;SDS011;3532;51.118;7.210;2023-09-19T00:23:31;8.23;;;3.67;;
6983;SDS011;3532;51.118;7.210;2023-09-19T00:25:59;4.40;;;3.03;;
6983;SDS011;3532;51.118;7.210;2023-09-19T00:28:25;6.23;;;3.10;;
6983;SDS011;3532;51.118;7.210;2023-09-19T00:30:51;7.30;;;2.87;;
6983;SDS011;3532;51.118;7.210;2023-09-19T00:33:16;8.33;;;4.27;;
6983;SDS011;3532;51.118;7.210;2023-09-19T00:35:51;5.03;;;3.03;;
6983;SDS011;3532;51.118;7.210;2023-09-19T00:38:17;8.80;;;3.77;;
6983;SDS011;3532;51.118;7.210;2023-09-19T00:40:48;4.83;;;3.07;;
6983;SDS011;3532;51.118;7.210;2023-09-19T00:43:13;6.60;;;2.80;;
6983;SDS011;3532;51.118;7.210;2023-09-19T00:45:39;6.47;;;3.27;;
6983;SDS011;3532;51.118;7.210;2023-09-19T00:48:08;7.67;;;3.20;;
6983;SDS011;3532;51.118;7.210;2023-09-19T00:50:34;7.47;;;3.17;;
6983;SDS011;3532;51.118;7.210;2023-09-19T00:53:00;5.10;;;3.10;;
6983;SDS011;3532;51.118;7.210;2023-09-19T00:55:26;5.90;;;3.10;;
6983;SDS011;3532;51.118;7.210;2023-09-19T00:57:52;6.90;;;3.50;;
6983;SDS011;3532;51.118;7.210;2023-09-19T01:00:20;8.07;;;3.50;;
6983;SDS011;3532;51.118;7.210;2023-09-19T01:02:46;4.87;;;3.20;;
6983;SDS011;3532;51.118;7.210;2023-09-19T01:05:11;6.60;;;3.03;;
6983;SDS011;3532;51.118;7.210;2023-09-19T01:07:37;6.93;;;3.23;;
6983;SDS011;3532;51.118;7.210;2023-09-19T01:10:05;6.23;;;3.47;;
6983;SDS011;3532;51.118;7.210;2023-09-19T01:18:21;5.47;;;2.63;;
6983;SDS011;3532;51.118;7.210;2023-09-19T01:20:57;5.07;;;3.17;;
6983;SDS011;3532;51.118;7.210;2023-09-19T01:28:54;4.97;;;3.00;;
6983;SDS011;3532;51.118;7.210;2023-09-19T01:31:27;7.20;;;3.47;;
6983;SDS011;3532;51.118;7.210;2023-09-19T01:33:54;6.70;;;2.80;;
6983;SDS011;3532;51.118;7.210;2023-09-19T01:36:22;9.03;;;3.63;;
6983;SDS011;3532;51.118;7.210;2023-09-19T01:38:49;4.07;;;3.07;;
6983;SDS011;3532;51.118;7.210;2023-09-19T01:41:16;7.63;;;3.30;;
6983;SDS011;3532;51.118;7.210;2023-09-19T01:43:45;4.37;;;3.03;;
6983;SDS011;3532;51.118;7.210;2023-09-19T01:52:28;4.53;;;3.07;;
6983;SDS011;3532;51.118;7.210;2023-09-19T01:54:26;7.70;;;3.10;;
6983;SDS011;3532;51.118;7.210;2023-09-19T01:57:04;8.63;;;3.30;;
6983;SDS011;3532;51.118;7.210;2023-09-19T01:59:35;7.07;;;3.63;;
6983;SDS011;3532;51.118;7.210;2023-09-19T02:02:05;8.27;;;3.63;;
6983;SDS011;3532;51.118;7.210;2023-09-19T02:04:32;9.33;;;3.10;;
6983;SDS011;3532;51.118;7.210;2023-09-19T02:07:00;10.60;;;3.57;;
6983;SDS011;3532;51.118;7.210;2023-09-19T02:09:26;9.37;;;3.63;;
6983;SDS011;3532;51.118;7.210;2023-09-19T02:11:51;7.03;;;3.73;;
6983;SDS011;3532;51.118;7.210;2023-09-19T02:14:17;8.47;;;3.60;;
6983;SDS011;3532;51.118;7.210;2023-09-19T02:16:44;6.77;;;3.30;;
6983;SDS011;3532;51.118;7.210;2023-09-19T02:19:10;10.80;;;4.00;;
6983;SDS011;3532;51.118;7.210;2023-09-19T02:21:35;7.60;;;3.37;;
6983;SDS011;3532;51.118;7.210;2023-09-19T02:24:01;11.87;;;3.97;;
6983;SDS011;3532;51.118;7.210;2023-09-19T02:26:28;5.50;;;3.37;;
6983;SDS011;3532;51.118;7.210;2023-09-19T02:28:53;6.63;;;3.20;;
6983;SDS011;3532;51.118;7.210;2023-09-19T02:31:18;8.93;;;3.90;;
6983;SDS011;3532;51.118;7.210;2023-09-19T02:33:44;6.10;;;3.20;;
6983;SDS011;3532;51.118;7.210;2023-09-19T02:36:11;7.17;;;3.57;;
6983;SDS011;3532;51.118;7.210;2023-09-19T02:38:36;10.63;;;4.83;;
6983;SDS011;3532;51.118;7.210;2023-09-19T02:41:02;5.40;;;3.13;;
6983;SDS011;3532;51.118;7.210;2023-09-19T02:43:28;12.67;;;4.37;;
6983;SDS011;3532;51.118;7.210;2023-09-19T02:45:53;7.90;;;3.10;;
6983;SDS011;3532;51.118;7.210;2023-09-19T02:48:19;7.97;;;3.10;;
6983;SDS011;3532;51.118;7.210;2023-09-19T02:50:44;13.57;;;3.90;;
6983;SDS011;3532;51.118;7.210;2023-09-19T02:53:10;8.17;;;3.17;;
6983;SDS011;3532;51.118;7.210;2023-09-19T02:55:38;8.77;;;3.13;;
6983;SDS011;3532;51.118;7.210;2023-09-19T02:58:05;9.60;;;4.00;;
6983;SDS011;3532;51.118;7.210;2023-09-19T03:00:32;8.37;;;3.77;;
6983;SDS011;3532;51.118;7.210;2023-09-19T03:03:00;7.50;;;2.93;;
6983;SDS011;3532;51.118;7.210;2023-09-19T03:05:25;8.03;;;3.53;;
6983;SDS011;3532;51.118;7.210;2023-09-19T03:07:51;8.67;;;3.47;;
6983;SDS011;3532;51.118;7.210;2023-09-19T03:10:17;10.60;;;3.33;;
6983;SDS011;3532;51.118;7.210;2023-09-19T03:12:43;8.20;;;3.23;;
6983;SDS011;3532;51.118;7.210;2023-09-19T03:15:08;7.30;;;3.20;;
6983;SDS011;3532;51.118;7.210;2023-09-19T03:17:34;5.30;;;3.03;;
6983;SDS011;3532;51.118;7.210;2023-09-19T03:20:00;9.53;;;3.23;;
6983;SDS011;3532;51.118;7.210;2023-09-19T03:22:27;5.70;;;3.00;;
6983;SDS011;3532;51.118;7.210;2023-09-19T03:24:52;6.87;;;3.30;;
6983;SDS011;3532;51.118;7.210;2023-09-19T03:27:18;8.23;;;3.40;;
6983;SDS011;3532;51.118;7.210;2023-09-19T03:29:43;9.73;;;3.40;;
6983;SDS011;3532;51.118;7.210;2023-09-19T03:32:09;7.17;;;3.77;;
6983;SDS011;3532;51.118;7.210;2023-09-19T03:34:37;8.80;;;3.50;;
6983;SDS011;3532;51.118;7.210;2023-09-19T03:37:07;8.30;;;3.50;;
6983;SDS011;3532;51.118;7.210;2023-09-19T03:39:33;9.10;;;3.37;;
6983;SDS011;3532;51.118;7.210;2023-09-19T03:41:58;9.13;;;3.47;;
6983;SDS011;3532;51.118;7.210;2023-09-19T03:44:24;6.43;;;2.93;;
6983;SDS011;3532;51.118;7.210;2023-09-19T03:46:49;9.93;;;3.03;;
6983;SDS011;3532;51.118;7.210;2023-09-19T03:49:15;12.03;;;3.60;;
6983;SDS011;3532;51.118;7.210;2023-09-19T03:51:40;7.00;;;3.57;;
6983;SDS011;3532;51.118;7.210;2023-09-19T03:54:06;7.40;;;2.70;;
6983;SDS011;3532;51.118;7.210;2023-09-19T03:56:32;9.77;;;3.83;;
6983;SDS011;3532;51.118;7.210;2023-09-19T03:58:57;10.43;;;4.17;;
6983;SDS011;3532;51.118;7.210;2023-09-19T04:01:23;5.77;;;3.57;;
6983;SDS011;3532;51.118;7.210;2023-09-19T04:03:48;8.53;;;4.10;;
6983;SDS011;3532;51.118;7.210;2023-09-19T04:06:14;13.33;;;3.07;;
6983;SDS011;3532;51.118;7.210;2023-09-19T04:08:39;8.93;;;3.80;;
6983;SDS011;3532;51.118;7.210;2023-09-19T04:11:05;7.53;;;3.27;;
6983;SDS011;3532;51.118;7.210;2023-09-19T04:13:30;9.00;;;4.63;;
6983;SDS011;3532;51.118;7.210;2023-09-19T04:15:56;11.27;;;3.90;;
6983;SDS011;3532;51.118;7.210;2023-09-19T04:18:21;8.33;;;3.37;;
6983;SDS011;3532;51.118;7.210;2023-09-19T04:20:51;11.13;;;3.57;;
6983;SDS011;3532;51.118;7.210;2023-09-19T04:23:17;9.20;;;3.33;;
6983;SDS011;3532;51.118;7.210;2023-09-19T04:25:45;8.77;;;3.20;;
6983;SDS011;3532;51.118;7.210;2023-09-19T04:28:10;7.80;;;3.60;;
6983;SDS011;3532;51.118;7.210;2023-09-19T04:30:36;5.87;;;3.13;;
6983;SDS011;3532;51.118;7.210;2023-09-19T04:33:02;11.27;;;3.30;;
6983;SDS011;3532;51.118;7.210;2023-09-19T04:35:28;5.87;;;3.47;;
6983;SDS011;3532;51.118;7.210;2023-09-19T04:37:56;6.17;;;3.50;;
6983;SDS011;3532;51.118;7.210;2023-09-19T04:40:22;5.47;;;3.20;;
6983;SDS011;3532;51.118;7.210;2023-09-19T04:42:55;7.87;;;3.40;;
6983;SDS011;3532;51.118;7.210;2023-09-19T04:45:21;7.73;;;3.60;;
6983;SDS011;3532;51.118;7.210;2023-09-19T04:47:47;8.13;;;3.57;;
6983;SDS011;3532;51.118;7.210;2023-09-19T04:50:12;5.67;;;3.10;;
6983;SDS011;3532;51.118;7.210;2023-09-19T04:52:41;6.67;;;2.93;;
6983;SDS011;3532;51.118;7.210;2023-09-19T04:55:10;7.50;;;3.33;;
6983;SDS011;3532;51.118;7.210;2023-09-19T04:57:38;6.17;;;3.20;;
6983;SDS011;3532;51.118;7.210;2023-09-19T05:00:04;10.20;;;3.50;;
6983;SDS011;3532;51.118;7.210;2023-09-19T05:02:37;10.60;;;3.60;;
6983;SDS011;3532;51.118;7.210;2023-09-19T05:05:02;10.33;;;3.90;;
6983;SDS011;3532;51.118;7.210;2023-09-19T05:07:29;10.40;;;3.57;;
6983;SDS011;3532;51.118;7.210;2023-09-19T05:09:55;7.37;;;3.27;;
6983;SDS011;3532;51.118;7.210;2023-09-19T05:12:20;7.43;;;3.50;;
6983;SDS011;3532;51.118;7.210;2023-09-19T05:14:45;9.13;;;3.60;;
6983;SDS011;3532;51.118;7.210;2023-09-19T05:17:11;5.77;;;3.20;;
6983;SDS011;3532;51.118;7.210;2023-09-19T05:19:36;9.70;;;3.57;;
6983;SDS011;3532;51.118;7.210;2023-09-19T05:22:01;8.23;;;3.17;;
6983;SDS011;3532;51.118;7.210;2023-09-19T05:24:29;6.60;;;2.97;;
6983;SDS011;3532;51.118;7.210;2023-09-19T05:26:55;7.93;;;3.43;;
6983;SDS011;3532;51.118;7.210;2023-09-19T05:29:20;9.33;;;3.40;;
6983;SDS011;3532;51.118;7.210;2023-09-19T05:31:45;7.30;;;3.40;;
6983;SDS011;3532;51.118;7.210;2023-09-19T05:34:11;7.73;;;3.43;;
6983;SDS011;3532;51.118;7.210;2023-09-19T05:36:37;9.17;;;3.13;;
6983;SDS011;3532;51.118;7.210;2023-09-19T05:39:03;6.27;;;3.10;;
6983;SDS011;3532;51.118;7.210;2023-09-19T05:41:29;8.20;;;3.50;;
6983;SDS011;3532;51.118;7.210;2023-09-19T05:43:54;6.67;;;3.47;;
6983;SDS011;3532;51.118;7.210;2023-09-19T05:46:19;8.03;;;3.70;;
6983;SDS011;3532;51.118;7.210;2023-09-19T05:48:45;9.40;;;3.40;;
6983;SDS011;3532;51.118;7.210;2023-09-19T05:51:14;8.80;;;3.30;;
6983;SDS011;3532;51.118;7.210;2023-09-19T05:53:41;8.10;;;3.83;;
6983;SDS011;3532;51.118;7.210;2023-09-19T05:56:08;11.00;;;3.77;;
6983;SDS011;3532;51.118;7.210;2023-09-19T05:58:35;7.13;;;3.40;;
6983;SDS011;3532;51.118;7.210;2023-09-19T06:01:01;7.77;;;3.40;;
6983;SDS011;3532;51.118;7.210;2023-09-19T06:03:26;8.40;;;3.70;;
6983;SDS011;3532;51.118;7.210;2023-09-19T06:05:51;9.07;;;3.30;;
6983;SDS011;3532;51.118;7.210;2023-09-19T06:08:18;11.63;;;3.23;;
6983;SDS011;3532;51.118;7.210;2023-09-19T06:10:43;7.23;;;3.00;;
6983;SDS011;3532;51.118;7.210;2023-09-19T06:13:08;10.37;;;3.07;;
6983;SDS011;3532;51.118;7.210;2023-09-19T06:15:35;10.00;;;3.80;;
6983;SDS011;3532;51.118;7.210;2023-09-19T06:18:01;7.70;;;3.77;;
6983;SDS011;3532;51.118;7.210;2023-09-19T06:20:26;8.57;;;3.03;;
6983;SDS011;3532;51.118;7.210;2023-09-19T06:22:52;10.77;;;3.70;;
6983;SDS011;3532;51.118;7.210;2023-09-19T06:25:17;7.33;;;3.23;;
6983;SDS011;3532;51.118;7.210;2023-09-19T06:27:50;8.83;;;3.47;;
6983;SDS011;3532;51.118;7.210;2023-09-19T06:30:20;6.80;;;3.30;;
6983;SDS011;3532;51.118;7.210;2023-09-19T06:32:46;8.17;;;3.40;;
6983;SDS011;3532;51.118;7.210;2023-09-19T06:35:13;4.93;;;2.77;;
6983;SDS011;3532;51.118;7.210;2023-09-19T06:37:39;10.43;;;3.93;;
6983;SDS011;3532;51.118;7.210;2023-09-19T06:40:12;6.23;;;3.50;;
6983;SDS011;3532;51.118;7.210;2023-09-19T06:42:39;5.37;;;3.33;;
6983;SDS011;3532;51.118;7.210;2023-09-19T06:45:11;9.17;;;3.50;;
6983;SDS011;3532;51.118;7.210;2023-09-19T06:47:38;6.33;;;3.37;;
6983;SDS011;3532;51.118;7.210;2023-09-19T06:50:04;5.93;;;3.43;;
6983;SDS011;3532;51.118;7.210;2023-09-19T06:52:31;5.97;;;3.27;;
6983;SDS011;3532;51.118;7.210;2023-09-19T06:54:58;7.80;;;3.20;;
6983;SDS011;3532;51.118;7.210;2023-09-19T06:57:23;8.43;;;4.03;;
6983;SDS011;3532;51.118;7.210;2023-09-19T06:59:49;8.13;;;3.33;;
6983;SDS011;3532;51.118;7.210;2023-09-19T07:02:15;4.93;;;2.87;;
6983;SDS011;3532;51.118;7.210;2023-09-19T07:04:40;8.70;;;4.30;;
6983;SDS011;3532;51.118;7.210;2023-09-19T07:07:06;5.90;;;3.70;;
6983;SDS011;3532;51.118;7.210;2023-09-19T07:09:33;11.93;;;3.37;;
6983;SDS011;3532;51.118;7.210;2023-09-19T07:11:59;6.97;;;3.50;;
6983;SDS011;3532;51.118;7.210;2023-09-19T07:14:24;8.53;;;3.27;;
6983;SDS011;3532;51.118;7.210;2023-09-19T07:16:49;7.20;;;3.00;;
6983;SDS011;3532;51.118;7.210;2023-09-19T07:19:15;8.33;;;3.43;;
6983;SDS011;3532;51.118;7.210;2023-09-19T07:21:41;9.63;;;3.33;;
6983;SDS011;3532;51.118;7.210;2023-09-19T07:24:07;8.57;;;3.30;;
6983;SDS011;3532;51.118;7.210;2023-09-19T07:26:33;6.63;;;3.30;;
6983;SDS011;3532;51.118;7.210;2023-09-19T07:28:58;9.50;;;3.60;;
6983;SDS011;3532;51.118;7.210;2023-09-19T07:31:23;8.77;;;3.80;;
6983;SDS011;3532;51.118;7.210;2023-09-19T07:33:50;9.63;;;3.23;;
6983;SDS011;3532;51.118;7.210;2023-09-19T07:36:15;13.03;;;4.20;;
6983;SDS011;3532;51.118;7.210;2023-09-19T07:38:41;9.63;;;3.87;;
6983;SDS011;3532;51.118;7.210;2023-09-19T07:41:07;6.60;;;3.33;;
6983;SDS011;3532;51.118;7.210;2023-09-19T07:43:34;7.47;;;3.33;;
6983;SDS011;3532;51.118;7.210;2023-09-19T07:46:04;5.60;;;3.40;;
6983;SDS011;3532;51.118;7.210;2023-09-19T07:48:31;6.53;;;3.90;;
6983;SDS011;3532;51.118;7.210;2023-09-19T07:51:01;11.80;;;3.43;;
6983;SDS011;3532;51.118;7.210;2023-09-19T07:53:33;7.50;;;3.80;;
6983;SDS011;3532;51.118;7.210;2023-09-19T07:56:03;9.93;;;3.07;;
6983;SDS011;3532;51.118;7.210;2023-09-19T07:58:30;8.30;;;3.20;;
6983;SDS011;3532;51.118;7.210;2023-09-19T08:00:56;8.90;;;3.70;;
6983;SDS011;3532;51.118;7.210;2023-09-19T08:03:21;11.27;;;4.03;;
6983;SDS011;3532;51.118;7.210;2023-09-19T08:05:47;7.83;;;3.50;;
6983;SDS011;3532;51.118;7.210;2023-09-19T08:08:13;8.97;;;4.07;;
6983;SDS011;3532;51.118;7.210;2023-09-19T08:10:39;10.53;;;3.70;;
6983;SDS011;3532;51.118;7.210;2023-09-19T08:13:07;8.93;;;3.33;;
6983;SDS011;3532;51.118;7.210;2023-09-19T08:15:36;12.83;;;4.43;;
6983;SDS011;3532;51.118;7.210;2023-09-19T08:18:01;11.47;;;4.03;;
6983;SDS011;3532;51.118;7.210;2023-09-19T08:20:26;7.47;;;3.30;;
6983;SDS011;3532;51.118;7.210;2023-09-19T08:22:52;8.30;;;3.60;;
6983;SDS011;3532;51.118;7.210;2023-09-19T08:25:19;9.17;;;4.07;;
6983;SDS011;3532;51.118;7.210;2023-09-19T08:27:45;9.60;;;3.50;;
6983;SDS011;3532;51.118;7.210;2023-09-19T08:30:21;7.30;;;3.33;;
6983;SDS011;3532;51.118;7.210;2023-09-19T08:32:56;7.50;;;3.97;;
6983;SDS011;3532;51.118;7.210;2023-09-19T08:35:23;7.30;;;3.50;;
6983;SDS011;3532;51.118;7.210;2023-09-19T08:37:48;10.47;;;3.47;;
6983;SDS011;3532;51.118;7.210;2023-09-19T08:40:14;11.50;;;4.00;;
6983;SDS011;3532;51.118;7.210;2023-09-19T08:42:55;6.53;;;2.97;;
6983;SDS011;3532;51.118;7.210;2023-09-19T08:45:21;8.63;;;3.07;;
6983;SDS011;3532;51.118;7.210;2023-09-19T08:53:27;8.80;;;3.60;;
6983;SDS011;3532;51.118;7.210;2023-09-19T08:55:59;9.67;;;3.63;;
6983;SDS011;3532;51.118;7.210;2023-09-19T08:58:27;11.27;;;3.67;;
6983;SDS011;3532;51.118;7.210;2023-09-19T09:00:58;11.97;;;4.30;;
6983;SDS011;3532;51.118;7.210;2023-09-19T09:03:26;10.53;;;3.73;;
6983;SDS011;3532;51.118;7.210;2023-09-19T09:05:51;10.03;;;4.03;;
6983;SDS011;3532;51.118;7.210;2023-09-19T09:08:17;7.03;;;2.93;;
6983;SDS011;3532;51.118;7.210;2023-09-19T09:10:45;8.47;;;3.70;;
6983;SDS011;3532;51.118;7.210;2023-09-19T09:13:10;8.20;;;4.00;;
6983;SDS011;3532;51.118;7.210;2023-09-19T09:15:39;8.27;;;3.63;;
6983;SDS011;3532;51.118;7.210;2023-09-19T09:18:06;9.17;;;3.90;;
6983;SDS011;3532;51.118;7.210;2023-09-19T09:20:31;8.30;;;4.17;;
6983;SDS011;3532;51.118;7.210;2023-09-19T09:22:56;7.43;;;4.10;;
6983;SDS011;3532;51.118;7.210;2023-09-19T09:26:10;7.83;;;3.33;;
6983;SDS011;3532;51.118;7.210;2023-09-19T09:28:21;6.27;;;3.47;;
6983;SDS011;3532;51.118;7.210;2023-09-19T09:30:48;7.73;;;3.80;;
6983;SDS011;3532;51.118;7.210;2023-09-19T09:33:14;9.57;;;3.60;;
6983;SDS011;3532;51.118;7.210;2023-09-19T09:36:14;6.73;;;3.33;;
6983;SDS011;3532;51.118;7.210;2023-09-19T09:38:43;9.90;;;3.53;;
6983;SDS011;3532;51.118;7.210;2023-09-19T09:41:11;8.77;;;3.67;;
6983;SDS011;3532;51.118;7.210;2023-09-19T09:43:52;9.83;;;3.50;;
6983;SDS011;3532;51.118;7.210;2023-09-19T09:46:18;9.00;;;3.60;;
6983;SDS011;3532;51.118;7.210;2023-09-19T09:48:48;8.57;;;3.43;;
6983;SDS011;3532;51.118;7.210;2023-09-19T09:51:45;8.57;;;3.30;;
6983;SDS011;3532;51.118;7.210;2023-09-19T09:54:36;11.33;;;3.73;;
6983;SDS011;3532;51.118;7.210;2023-09-19T09:57:02;3.80;;;2.97;;
6983;SDS011;3532;51.118;7.210;2023-09-19T09:59:58;5.90;;;3.00;;
6983;SDS011;3532;51.118;7.210;2023-09-19T10:02:40;6.43;;;2.83;;
6983;SDS011;3532;51.118;7.210;2023-09-19T10:05:18;6.67;;;2.70;;
6983;SDS011;3532;51.118;7.210;2023-09-19T10:07:44;7.17;;;3.10;;
6983;SDS011;3532;51.118;7.210;2023-09-19T10:10:37;9.70;;;3.87;;
6983;SDS011;3532;51.118;7.210;2023-09-19T10:13:06;4.87;;;2.67;;
6983;SDS011;3532;51.118;7.210;2023-09-19T10:15:33;8.43;;;3.03;;
6983;SDS011;3532;51.118;7.210;2023-09-19T10:18:01;5.70;;;3.23;;
6983;SDS011;3532;51.118;7.210;2023-09-19T10:20:29;7.27;;;3.20;;
6983;SDS011;3532;51.118;7.210;2023-09-19T10:22:55;4.53;;;2.97;;
6983;SDS011;3532;51.118;7.210;2023-09-19T10:25:25;4.67;;;2.77;;
6983;SDS011;3532;51.118;7.210;2023-09-19T10:27:51;9.10;;;3.17;;
6983;SDS011;3532;51.118;7.210;2023-09-19T10:30:18;8.13;;;3.30;;
6983;SDS011;3532;51.118;7.210;2023-09-19T10:32:45;8.10;;;3.17;;
6983;SDS011;3532;51.118;7.210;2023-09-19T10:35:11;6.00;;;3.20;;
6983;SDS011;3532;51.118;7.210;2023-09-19T10:37:38;6.03;;;3.00;;
6983;SDS011;3532;51.118;7.210;2023-09-19T10:40:04;6.30;;;2.90;;
6983;SDS011;3532;51.118;7.210;2023-09-19T10:42:33;5.87;;;3.00;;
6983;SDS011;3532;51.118;7.210;2023-09-19T10:45:02;5.47;;;2.80;;
6983;SDS011;3532;51.118;7.210;2023-09-19T10:47:32;6.80;;;2.63;;
6983;SDS011;3532;51.118;7.210;2023-09-19T10:49:57;5.47;;;2.80;;
6983;SDS011;3532;51.118;7.210;2023-09-19T10:52:23;6.77;;;3.00;;
6983;SDS011;3532;51.118;7.210;2023-09-19T10:54:50;5.07;;;2.93;;
6983;SDS011;3532;51.118;7.210;2023-09-19T10:57:20;4.57;;;2.77;;
6983;SDS011;3532;51.118;7.210;2023-09-19T11:00:04;6.10;;;2.97;;
6983;SDS011;3532;51.118;7.210;2023-09-19T11:06:02;5.60;;;3.40;;
6983;SDS011;3532;51.118;7.210;2023-09-19T11:11:42;3.93;;;2.47;;
6983;SDS011;3532;51.118;7.210;2023-09-19T11:14:15;9.03;;;3.17;;
6983;SDS011;3532;51.118;7.210;2023-09-19T11:16:51;5.70;;;2.87;;
6983;SDS011;3532;51.118;7.210;2023-09-19T11:30:30;6.87;;;3.07;;
6983;SDS011;3532;51.118;7.210;2023-09-19T11:36:03;4.90;;;2.67;;
6983;SDS011;3532;51.118;7.210;2023-09-19T11:46:28;5.83;;;2.60;;
6983;SDS011;3532;51.118;7.210;2023-09-19T11:48:54;4.93;;;3.40;;
6983;SDS011;3532;51.118;7.210;2023-09-19T11:51:21;5.97;;;2.70;;
6983;SDS011;3532;51.118;7.210;2023-09-19T11:53:52;6.13;;;3.07;;
6983;SDS011;3532;51.118;7.210;2023-09-19T11:56:21;4.63;;;2.90;;
6983;SDS011;3532;51.118;7.210;2023-09-19T11:58:52;4.50;;;2.60;;
6983;SDS011;3532;51.118;7.210;2023-09-19T12:01:26;5.10;;;2.80;;
6983;SDS011;3532;51.118;7.210;2023-09-19T12:03:55;5.97;;;2.80;;
6983;SDS011;3532;51.118;7.210;2023-09-19T12:06:22;7.43;;;3.07;;
6983;SDS011;3532;51.118;7.210;2023-09-19T12:08:48;6.47;;;3.03;;
6983;SDS011;3532;51.118;7.210;2023-09-19T12:11:15;6.63;;;3.00;;
6983;SDS011;3532;51.118;7.210;2023-09-19T12:13:41;4.23;;;2.83;;
6983;SDS011;3532;51.118;7.210;2023-09-19T12:16:13;4.33;;;2.47;;
6983;SDS011;3532;51.118;7.210;2023-09-19T12:18:40;4.30;;;2.67;;
6983;SDS011;3532;51.118;7.210;2023-09-19T12:21:06;5.63;;;2.87;;
6983;SDS011;3532;51.118;7.210;2023-09-19T12:23:37;5.53;;;2.90;;
6983;SDS011;3532;51.118;7.210;2023-09-19T12:26:06;5.67;;;2.87;;
6983;SDS011;3532;51.118;7.210;2023-09-19T12:28:38;3.73;;;2.50;;
6983;SDS011;3532;51.118;7.210;2023-09-19T12:31:07;7.73;;;3.17;;
6983;SDS011;3532;51.118;7.210;2023-09-19T12:33:33;6.07;;;3.13;;
6983;SDS011;3532;51.118;7.210;2023-09-19T12:36:00;4.77;;;3.00;;
6983;SDS011;3532;51.118;7.210;2023-09-19T12:38:28;7.23;;;3.13;;
6983;SDS011;3532;51.118;7.210;2023-09-19T12:40:57;7.23;;;3.47;;
6983;SDS011;3532;51.118;7.210;2023-09-19T12:43:25;4.90;;;2.77;;
6983;SDS011;3532;51.118;7.210;2023-09-19T12:45:52;7.70;;;3.40;;
6983;SDS011;3532;51.118;7.210;2023-09-19T12:53:36;4.50;;;2.80;;
6983;SDS011;3532;51.118;7.210;2023-09-19T12:56:07;7.70;;;3.10;;
6983;SDS011;3532;51.118;7.210;2023-09-19T12:58:35;4.67;;;3.00;;
6983;SDS011;3532;51.118;7.210;2023-09-19T13:01:16;5.60;;;2.63;;
6983;SDS011;3532;51.118;7.210;2023-09-19T13:03:42;3.00;;;2.70;;
6983;SDS011;3532;51.118;7.210;2023-09-19T13:06:07;4.13;;;2.87;;
6983;SDS011;3532;51.118;7.210;2023-09-19T13:08:37;6.80;;;3.23;;
6983;SDS011;3532;51.118;7.210;2023-09-19T13:13:41;4.37;;;2.43;;
6983;SDS011;3532;51.118;7.210;2023-09-19T13:16:09;4.97;;;2.63;;
6983;SDS011;3532;51.118;7.210;2023-09-19T13:18:49;3.90;;;2.60;;
6983;SDS011;3532;51.118;7.210;2023-09-19T13:21:16;4.33;;;2.40;;
6983;SDS011;3532;51.118;7.210;2023-09-19T13:23:51;6.10;;;3.17;;
6983;SDS011;3532;51.118;7.210;2023-09-19T13:26:23;6.37;;;3.00;;
6983;SDS011;3532;51.118;7.210;2023-09-19T13:28:49;3.53;;;2.40;;
6983;SDS011;3532;51.118;7.210;2023-09-19T13:31:14;7.33;;;2.73;;
6983;SDS011;3532;51.118;7.210;2023-09-19T13:33:47;3.57;;;2.47;;
6983;SDS011;3532;51.118;7.210;2023-09-19T13:36:13;5.90;;;2.67;;
6983;SDS011;3532;51.118;7.210;2023-09-19T13:38:42;7.67;;;2.70;;
6983;SDS011;3532;51.118;7.210;2023-09-19T13:41:11;3.10;;;2.20;;
6983;SDS011;3532;51.118;7.210;2023-09-19T13:43:37;6.37;;;2.80;;
6983;SDS011;3532;51.118;7.210;2023-09-19T13:46:03;5.33;;;2.67;;
6983;SDS011;3532;51.118;7.210;2023-09-19T13:48:29;5.10;;;3.03;;
6983;SDS011;3532;51.118;7.210;2023-09-19T13:50:54;7.70;;;2.77;;
6983;SDS011;3532;51.118;7.210;2023-09-19T13:53:20;6.47;;;2.63;;
6983;SDS011;3532;51.118;7.210;2023-09-19T13:55:46;3.80;;;2.40;;
6983;SDS011;3532;51.118;7.210;2023-09-19T13:58:12;3.17;;;2.43;;
6983;SDS011;3532;51.118;7.210;2023-09-19T14:00:37;6.83;;;2.43;;
6983;SDS011;3532;51.118;7.210;2023-09-19T14:03:03;5.53;;;2.60;;
6983;SDS011;3532;51.118;7.210;2023-09-19T14:05:29;4.00;;;2.40;;
6983;SDS011;3532;51.118;7.210;2023-09-19T14:07:54;5.17;;;2.47;;
6983;SDS011;3532;51.118;7.210;2023-09-19T14:10:21;3.13;;;2.30;;
6983;SDS011;3532;51.118;7.210;2023-09-19T14:12:46;6.17;;;2.60;;
6983;SDS011;3532;51.118;7.210;2023-09-19T14:15:11;5.53;;;2.53;;
6983;SDS011;3532;51.118;7.210;2023-09-19T14:17:39;4.67;;;2.53;;
6983;SDS011;3532;51.118;7.210;2023-09-19T14:20:07;3.70;;;2.20;;
6983;SDS011;3532;51.118;7.210;2023-09-19T14:22:35;4.10;;;2.40;;
6983;SDS011;3532;51.118;7.210;2023-09-19T14:25:01;4.43;;;2.40;;
6983;SDS011;3532;51.118;7.210;2023-09-19T14:27:27;5.37;;;2.53;;
6983;SDS011;3532;51.118;7.210;2023-09-19T14:29:52;3.80;;;2.23;;
6983;SDS011;3532;51.118;7.210;2023-09-19T14:32:17;5.57;;;2.43;;
6983;SDS011;3532;51.118;7.210;2023-09-19T14:34:43;3.50;;;2.33;;
6983;SDS011;3532;51.118;7.210;2023-09-19T14:37:09;3.43;;;2.30;;
6983;SDS011;3532;51.118;7.210;2023-09-19T14:39:36;6.63;;;2.60;;
6983;SDS011;3532;51.118;7.210;2023-09-19T14:42:03;6.17;;;2.20;;
6983;SDS011;3532;51.118;7.210;2023-09-19T14:44:29;4.83;;;2.73;;
6983;SDS011;3532;51.118;7.210;2023-09-19T14:46:54;4.00;;;2.40;;
6983;SDS011;3532;51.118;7.210;2023-09-19T14:49:20;7.17;;;2.37;;
6983;SDS011;3532;51.118;7.210;2023-09-19T14:51:45;4.73;;;2.13;;
6983;SDS011;3532;51.118;7.210;2023-09-19T14:54:13;5.50;;;2.40;;
6983;SDS011;3532;51.118;7.210;2023-09-19T14:56:38;4.53;;;2.20;;
6983;SDS011;3532;51.118;7.210;2023-09-19T14:59:03;4.60;;;2.00;;
6983;SDS011;3532;51.118;7.210;2023-09-19T15:01:29;5.77;;;2.20;;
6983;SDS011;3532;51.118;7.210;2023-09-19T15:03:55;3.30;;;2.10;;
6983;SDS011;3532;51.118;7.210;2023-09-19T15:06:20;3.33;;;1.90;;
6983;SDS011;3532;51.118;7.210;2023-09-19T15:08:46;3.90;;;2.10;;
6983;SDS011;3532;51.118;7.210;2023-09-19T15:11:18;3.13;;;1.90;;
6983;SDS011;3532;51.118;7.210;2023-09-19T15:13:45;4.57;;;2.40;;
6983;SDS011;3532;51.118;7.210;2023-09-19T15:16:12;3.70;;;2.00;;
6983;SDS011;3532;51.118;7.210;2023-09-19T15:18:39;3.77;;;1.77;;
6983;SDS011;3532;51.118;7.210;2023-09-19T15:21:06;3.90;;;2.23;;
6983;SDS011;3532;51.118;7.210;2023-09-19T15:23:35;5.43;;;2.67;;
6983;SDS011;3532;51.118;7.210;2023-09-19T15:26:02;3.67;;;2.00;;
6983;SDS011;3532;51.118;7.210;2023-09-19T15:28:30;3.23;;;2.10;;
6983;SDS011;3532;51.118;7.210;2023-09-19T15:31:00;4.13;;;2.30;;
6983;SDS011;3532;51.118;7.210;2023-09-19T15:33:26;3.10;;;1.77;;
6983;SDS011;3532;51.118;7.210;2023-09-19T15:35:59;2.27;;;2.07;;
6983;SDS011;3532;51.118;7.210;2023-09-19T15:38:28;3.53;;;2.10;;
6983;SDS011;3532;51.118;7.210;2023-09-19T15:40:54;3.63;;;2.17;;
6983;SDS011;3532;51.118;7.210;2023-09-19T15:43:20;5.00;;;1.97;;
6983;SDS011;3532;51.118;7.210;2023-09-19T15:45:46;2.50;;;1.90;;
6983;SDS011;3532;51.118;7.210;2023-09-19T15:48:13;4.47;;;2.00;;
6983;SDS011;3532;51.118;7.210;2023-09-19T15:50:38;3.70;;;1.83;;
6983;SDS011;3532;51.118;7.210;2023-09-19T15:53:06;2.07;;;1.80;;
6983;SDS011;3532;51.118;7.210;2023-09-19T15:55:31;8.03;;;2.57;;
6983;SDS011;3532;51.118;7.210;2023-09-19T15:57:57;2.90;;;1.77;;
6983;SDS011;3532;51.118;7.210;2023-09-19T16:00:23;1.97;;;1.77;;
6983;SDS011;3532;51.118;7.210;2023-09-19T16:02:48;3.00;;;2.07;;
6983;SDS011;3532;51.118;7.210;2023-09-19T16:05:15;6.47;;;2.57;;
6983;SDS011;3532;51.118;7.210;2023-09-19T16:07:40;3.10;;;1.80;;
6983;SDS011;3532;51.118;7.210;2023-09-19T16:10:06;2.87;;;2.00;;
6983;SDS011;3532;51.118;7.210;2023-09-19T16:12:33;2.23;;;2.03;;
6983;SDS011;3532;51.118;7.210;2023-09-19T16:14:58;3.20;;;2.20;;
6983;SDS011;3532;51.118;7.210;2023-09-19T16:17:23;4.00;;;2.20;;